sensor_id;sensor_type;location;lat;lon;timestamp;pressure;altitude;pressure_sealevel;temperature;humidity
24486;BME280;13449;49.374;8.584;2023-03-18T00:00:26;100090.56;;;10.76;100.00
24486;BME280;13449;49.374;8.584;2023-03-18T00:02:54;100092.91;;;10.71;100.00
24486;BME280;13449;49.374;8.584;2023-03-18T00:05:21;100093.44;;;10.82;100.00
24486;BME280;13449;49.374;8.584;2023-03-18T00:07:50;100097.00;;;10.74;100.00
24486;BME280;13449;49.374;8.584;2023-03-18T00:10:16;100095.81;;;10.76;100.00
24486;BME280;13449;49.374;8.584;2023-03-18T00:12:44;100099.63;;;10.74;100.00
24486;BME280;13449;49.374;8.584;2023-03-18T00:15:12;100106.72;;;10.73;100.00
24486;BME280;13449;49.374;8.584;2023-03-18T00:17:44;100110.69;;;10.84;100.00
24486;BME280;13449;49.374;8.584;2023-03-18T00:20:12;100119.16;;;10.80;100.00
24486;BME280;13449;49.374;8.584;2023-03-18T00:22:39;100111.34;;;10.86;100.00
24486;BME280;13449;49.374;8.584;2023-03-18T00:25:11;100117.34;;;11.02;100.00
24486;BME280;13449;49.374;8.584;2023-03-18T00:27:38;100122.31;;;11.11;100.00
24486;BME280;13449;49.374;8.584;2023-03-18T00:30:06;100119.69;;;10.75;100.00
24486;BME280;13449;49.374;8.584;2023-03-18T00:32:33;100120.00;;;10.65;100.00
24486;BME280;13449;49.374;8.584;2023-03-18T00:35:01;100123.06;;;10.69;100.00
24486;BME280;13449;49.374;8.584;2023-03-18T00:37:31;100127.72;;;10.67;100.00
24486;BME280;13449;49.374;8.584;2023-03-18T00:40:00;100126.06;;;10.66;100.00
24486;BME280;13449;49.374;8.584;2023-03-18T00:42:39;100120.56;;;10.46;100.00
24486;BME280;13449;49.374;8.584;2023-03-18T00:45:14;100129.47;;;10.45;100.00
24486;BME280;13449;49.374;8.584;2023-03-18T00:47:42;100132.47;;;10.42;100.00
24486;BME280;13449;49.374;8.584;2023-03-18T00:50:09;100133.47;;;10.41;100.00
24486;BME280;13449;49.374;8.584;2023-03-18T00:52:36;100131.56;;;10.35;100.00
24486;BME280;13449;49.374;8.584;2023-03-18T00:55:04;100138.03;;;10.47;100.00
24486;BME280;13449;49.374;8.584;2023-03-18T00:57:30;100136.28;;;10.54;100.00
24486;BME280;13449;49.374;8.584;2023-03-18T00:59:59;100135.66;;;10.37;100.00
24486;BME280;13449;49.374;8.584;2023-03-18T01:02:29;100141.81;;;10.15;100.00
24486;BME280;13449;49.374;8.584;2023-03-18T01:04:58;100143.13;;;10.11;100.00
24486;BME280;13449;49.374;8.584;2023-03-18T01:07:24;100148.34;;;10.19;100.00
24486;BME280;13449;49.374;8.584;2023-03-18T01:09:53;100141.69;;;10.23;100.00
24486;BME280;13449;49.374;8.584;2023-03-18T01:12:23;100138.00;;;10.17;100.00
24486;BME280;13449;49.374;8.584;2023-03-18T01:14:50;100139.34;;;10.13;100.00
24486;BME280;13449;49.374;8.584;2023-03-18T01:17:17;100135.31;;;9.88;100.00
24486;BME280;13449;49.374;8.584;2023-03-18T01:19:44;100134.69;;;9.86;100.00
24486;BME280;13449;49.374;8.584;2023-03-18T01:22:10;100130.31;;;9.78;100.00
24486;BME280;13449;49.374;8.584;2023-03-18T01:24:36;100139.00;;;9.64;100.00
24486;BME280;13449;49.374;8.584;2023-03-18T01:27:03;100138.19;;;9.63;100.00
24486;BME280;13449;49.374;8.584;2023-03-18T01:29:31;100134.16;;;9.52;100.00
24486;BME280;13449;49.374;8.584;2023-03-18T01:31:57;100134.44;;;9.57;100.00
24486;BME280;13449;49.374;8.584;2023-03-18T01:34:25;100141.03;;;9.53;100.00
24486;BME280;13449;49.374;8.584;2023-03-18T01:36:54;100134.06;;;9.46;100.00
24486;BME280;13449;49.374;8.584;2023-03-18T01:39:23;100131.81;;;9.34;100.00
24486;BME280;13449;49.374;8.584;2023-03-18T01:41:50;100131.94;;;9.41;100.00
24486;BME280;13449;49.374;8.584;2023-03-18T01:44:22;100132.59;;;9.43;100.00
24486;BME280;13449;49.374;8.584;2023-03-18T01:46:51;100132.81;;;9.33;100.00
24486;BME280;13449;49.374;8.584;2023-03-18T01:49:25;100136.19;;;9.65;100.00
24486;BME280;13449;49.374;8.584;2023-03-18T01:52:00;100136.66;;;9.69;100.00
24486;BME280;13449;49.374;8.584;2023-03-18T01:54:31;100131.34;;;9.31;100.00
24486;BME280;13449;49.374;8.584;2023-03-18T01:56:59;100122.19;;;9.50;100.00
24486;BME280;13449;49.374;8.584;2023-03-18T01:59:28;100131.03;;;9.49;100.00
24486;BME280;13449;49.374;8.584;2023-03-18T02:04:31;100127.78;;;9.47;100.00
24486;BME280;13449;49.374;8.584;2023-03-18T02:07:03;100120.59;;;9.41;100.00
24486;BME280;13449;49.374;8.584;2023-03-18T02:09:30;100117.91;;;9.49;100.00
24486;BME280;13449;49.374;8.584;2023-03-18T02:11:58;100121.31;;;9.34;100.00
24486;BME280;13449;49.374;8.584;2023-03-18T02:14:26;100120.31;;;9.12;100.00
24486;BME280;13449;49.374;8.584;2023-03-18T02:17:03;100114.69;;;9.16;100.00
24486;BME280;13449;49.374;8.584;2023-03-18T02:22:11;100120.97;;;9.15;100.00
24486;BME280;13449;49.374;8.584;2023-03-18T02:24:53;100126.53;;;9.20;100.00
24486;BME280;13449;49.374;8.584;2023-03-18T02:27:29;100124.41;;;9.15;100.00
24486;BME280;13449;49.374;8.584;2023-03-18T02:30:03;100130.63;;;8.91;100.00
24486;BME280;13449;49.374;8.584;2023-03-18T02:32:33;100134.88;;;8.92;100.00
24486;BME280;13449;49.374;8.584;2023-03-18T02:35:01;100136.59;;;9.08;100.00
24486;BME280;13449;49.374;8.584;2023-03-18T02:37:28;100128.41;;;9.03;100.00
24486;BME280;13449;49.374;8.584;2023-03-18T02:40:18;100132.41;;;9.22;100.00
24486;BME280;13449;49.374;8.584;2023-03-18T02:42:46;100139.91;;;9.33;100.00
24486;BME280;13449;49.374;8.584;2023-03-18T02:47:56;100145.06;;;9.18;100.00
24486;BME280;13449;49.374;8.584;2023-03-18T02:50:25;100144.91;;;9.20;100.00
24486;BME280;13449;49.374;8.584;2023-03-18T02:52:56;100142.53;;;9.33;100.00
24486;BME280;13449;49.374;8.584;2023-03-18T02:55:23;100140.97;;;9.39;100.00
24486;BME280;13449;49.374;8.584;2023-03-18T02:57:53;100151.25;;;9.48;100.00
24486;BME280;13449;49.374;8.584;2023-03-18T03:00:19;100151.69;;;9.37;100.00
24486;BME280;13449;49.374;8.584;2023-03-18T03:02:46;100148.28;;;9.28;100.00
24486;BME280;13449;49.374;8.584;2023-03-18T03:05:12;100139.59;;;9.28;100.00
24486;BME280;13449;49.374;8.584;2023-03-18T03:07:39;100134.44;;;9.57;100.00
24486;BME280;13449;49.374;8.584;2023-03-18T03:10:06;100143.25;;;9.65;100.00
24486;BME280;13449;49.374;8.584;2023-03-18T03:12:33;100147.78;;;9.71;100.00
24486;BME280;13449;49.374;8.584;2023-03-18T03:14:59;100141.81;;;9.62;100.00
24486;BME280;13449;49.374;8.584;2023-03-18T03:17:26;100142.72;;;9.69;100.00
24486;BME280;13449;49.374;8.584;2023-03-18T03:19:53;100143.81;;;9.75;100.00
24486;BME280;13449;49.374;8.584;2023-03-18T03:22:19;100150.56;;;9.92;100.00
24486;BME280;13449;49.374;8.584;2023-03-18T03:24:46;100151.50;;;9.99;100.00
24486;BME280;13449;49.374;8.584;2023-03-18T03:27:12;100161.47;;;10.04;100.00
24486;BME280;13449;49.374;8.584;2023-03-18T03:29:39;100161.75;;;10.09;100.00
24486;BME280;13449;49.374;8.584;2023-03-18T03:32:05;100160.59;;;10.12;100.00
24486;BME280;13449;49.374;8.584;2023-03-18T03:34:32;100162.22;;;10.13;100.00
24486;BME280;13449;49.374;8.584;2023-03-18T03:37:00;100150.56;;;10.07;100.00
24486;BME280;13449;49.374;8.584;2023-03-18T03:39:29;100150.31;;;10.17;100.00
24486;BME280;13449;49.374;8.584;2023-03-18T03:41:58;100160.31;;;10.21;100.00
24486;BME280;13449;49.374;8.584;2023-03-18T03:44:24;100157.16;;;10.26;100.00
24486;BME280;13449;49.374;8.584;2023-03-18T03:46:51;100161.13;;;10.22;100.00
24486;BME280;13449;49.374;8.584;2023-03-18T03:49:17;100156.63;;;10.31;100.00
24486;BME280;13449;49.374;8.584;2023-03-18T03:51:44;100159.28;;;10.31;100.00
24486;BME280;13449;49.374;8.584;2023-03-18T03:54:13;100161.94;;;10.22;100.00
24486;BME280;13449;49.374;8.584;2023-03-18T03:56:42;100168.16;;;10.29;100.00
24486;BME280;13449;49.374;8.584;2023-03-18T03:59:08;100167.78;;;10.33;100.00
24486;BME280;13449;49.374;8.584;2023-03-18T04:01:35;100173.50;;;10.36;100.00
24486;BME280;13449;49.374;8.584;2023-03-18T04:04:02;100175.31;;;10.36;100.00
24486;BME280;13449;49.374;8.584;2023-03-18T04:06:29;100173.88;;;10.33;100.00
24486;BME280;13449;49.374;8.584;2023-03-18T04:08:56;100172.69;;;10.36;100.00
24486;BME280;13449;49.374;8.584;2023-03-18T04:11:25;100175.63;;;10.41;100.00
24486;BME280;13449;49.374;8.584;2023-03-18T04:13:55;100173.16;;;10.39;100.00
24486;BME280;13449;49.374;8.584;2023-03-18T04:16:21;100175.25;;;10.44;100.00
24486;BME280;13449;49.374;8.584;2023-03-18T04:18:53;100179.22;;;10.40;100.00
24486;BME280;13449;49.374;8.584;2023-03-18T04:21:19;100173.34;;;10.38;100.00
24486;BME280;13449;49.374;8.584;2023-03-18T04:23:46;100177.06;;;10.43;100.00
24486;BME280;13449;49.374;8.584;2023-03-18T04:26:13;100169.06;;;10.51;100.00
24486;BME280;13449;49.374;8.584;2023-03-18T04:28:39;100180.16;;;10.47;100.00
24486;BME280;13449;49.374;8.584;2023-03-18T04:31:08;100170.16;;;10.42;100.00
24486;BME280;13449;49.374;8.584;2023-03-18T04:33:35;100170.84;;;10.21;100.00
24486;BME280;13449;49.374;8.584;2023-03-18T04:36:01;100179.03;;;10.26;100.00
24486;BME280;13449;49.374;8.584;2023-03-18T04:38:28;100174.47;;;10.20;100.00
24486;BME280;13449;49.374;8.584;2023-03-18T04:40:54;100183.50;;;10.41;100.00
24486;BME280;13449;49.374;8.584;2023-03-18T04:43:21;100180.13;;;10.32;100.00
24486;BME280;13449;49.374;8.584;2023-03-18T04:45:47;100174.72;;;10.34;100.00
24486;BME280;13449;49.374;8.584;2023-03-18T04:48:14;100184.41;;;10.48;100.00
24486;BME280;13449;49.374;8.584;2023-03-18T04:50:41;100180.53;;;10.44;100.00
24486;BME280;13449;49.374;8.584;2023-03-18T04:53:08;100173.16;;;10.39;100.00
24486;BME280;13449;49.374;8.584;2023-03-18T04:55:35;100178.97;;;10.35;100.00
24486;BME280;13449;49.374;8.584;2023-03-18T04:58:02;100167.25;;;10.37;100.00
24486;BME280;13449;49.374;8.584;2023-03-18T05:00:29;100176.78;;;10.38;100.00
24486;BME280;13449;49.374;8.584;2023-03-18T05:02:58;100174.81;;;10.40;100.00
24486;BME280;13449;49.374;8.584;2023-03-18T05:05:27;100182.59;;;10.34;100.00
24486;BME280;13449;49.374;8.584;2023-03-18T05:07:53;100188.13;;;10.39;100.00
24486;BME280;13449;49.374;8.584;2023-03-18T05:10:20;100187.59;;;10.43;100.00
24486;BME280;13449;49.374;8.584;2023-03-18T05:12:46;100181.25;;;10.38;100.00
24486;BME280;13449;49.374;8.584;2023-03-18T05:15:13;100181.75;;;10.33;100.00
24486;BME280;13449;49.374;8.584;2023-03-18T05:17:40;100191.31;;;10.34;100.00
24486;BME280;13449;49.374;8.584;2023-03-18T05:20:10;100194.56;;;10.36;100.00
24486;BME280;13449;49.374;8.584;2023-03-18T05:22:36;100198.56;;;10.32;100.00
24486;BME280;13449;49.374;8.584;2023-03-18T05:25:03;100194.94;;;10.33;100.00
24486;BME280;13449;49.374;8.584;2023-03-18T05:27:30;100202.78;;;10.18;100.00
24486;BME280;13449;49.374;8.584;2023-03-18T05:29:57;100201.78;;;10.04;100.00
24486;BME280;13449;49.374;8.584;2023-03-18T05:32:23;100200.16;;;10.18;100.00
24486;BME280;13449;49.374;8.584;2023-03-18T05:34:50;100196.78;;;10.10;100.00
24486;BME280;13449;49.374;8.584;2023-03-18T05:37:17;100198.97;;;10.06;100.00
24486;BME280;13449;49.374;8.584;2023-03-18T05:39:49;100200.59;;;10.07;100.00
24486;BME280;13449;49.374;8.584;2023-03-18T05:42:16;100196.31;;;10.06;100.00
24486;BME280;13449;49.374;8.584;2023-03-18T05:44:47;100196.53;;;10.19;100.00
24486;BME280;13449;49.374;8.584;2023-03-18T05:47:14;100200.19;;;10.33;100.00
24486;BME280;13449;49.374;8.584;2023-03-18T05:49:40;100199.38;;;10.33;100.00
24486;BME280;13449;49.374;8.584;2023-03-18T05:52:07;100196.00;;;10.24;100.00
24486;BME280;13449;49.374;8.584;2023-03-18T05:54:33;100204.88;;;10.23;100.00
24486;BME280;13449;49.374;8.584;2023-03-18T05:57:00;100204.63;;;10.18;100.00
24486;BME280;13449;49.374;8.584;2023-03-18T05:59:29;100206.59;;;10.01;100.00
24486;BME280;13449;49.374;8.584;2023-03-18T06:01:58;100209.56;;;9.98;100.00
24486;BME280;13449;49.374;8.584;2023-03-18T06:04:25;100201.69;;;9.98;100.00
24486;BME280;13449;49.374;8.584;2023-03-18T06:06:53;100206.94;;;9.98;100.00
24486;BME280;13449;49.374;8.584;2023-03-18T06:09:23;100208.47;;;9.92;100.00
24486;BME280;13449;49.374;8.584;2023-03-18T06:11:51;100207.66;;;10.06;100.00
24486;BME280;13449;49.374;8.584;2023-03-18T06:14:17;100206.31;;;10.11;100.00
24486;BME280;13449;49.374;8.584;2023-03-18T06:16:44;100204.88;;;10.23;100.00
24486;BME280;13449;49.374;8.584;2023-03-18T06:19:11;100207.13;;;10.34;100.00
24486;BME280;13449;49.374;8.584;2023-03-18T06:21:38;100211.13;;;10.45;100.00
24486;BME280;13449;49.374;8.584;2023-03-18T06:24:06;100205.56;;;10.55;100.00
24486;BME280;13449;49.374;8.584;2023-03-18T06:26:36;100208.13;;;10.63;100.00
24486;BME280;13449;49.374;8.584;2023-03-18T06:29:02;100208.03;;;10.86;100.00
24486;BME280;13449;49.374;8.584;2023-03-18T06:31:30;100215.81;;;10.94;100.00
24486;BME280;13449;49.374;8.584;2023-03-18T06:33:57;100214.34;;;11.06;100.00
24486;BME280;13449;49.374;8.584;2023-03-18T06:36:26;100207.97;;;11.15;100.00
24486;BME280;13449;49.374;8.584;2023-03-18T06:38:53;100224.31;;;11.11;100.00
24486;BME280;13449;49.374;8.584;2023-03-18T06:41:19;100211.84;;;11.19;100.00
24486;BME280;13449;49.374;8.584;2023-03-18T06:43:46;100217.94;;;11.20;100.00
24486;BME280;13449;49.374;8.584;2023-03-18T06:46:16;100216.56;;;11.24;100.00
24486;BME280;13449;49.374;8.584;2023-03-18T06:48:43;100217.94;;;11.20;100.00
24486;BME280;13449;49.374;8.584;2023-03-18T06:51:10;100221.75;;;11.17;100.00
24486;BME280;13449;49.374;8.584;2023-03-18T06:53:39;100219.06;;;11.11;100.00
24486;BME280;13449;49.374;8.584;2023-03-18T06:56:09;100227.06;;;11.03;100.00
24486;BME280;13449;49.374;8.584;2023-03-18T06:58:42;100229.09;;;10.86;100.00
24486;BME280;13449;49.374;8.584;2023-03-18T07:01:08;100228.66;;;10.82;100.00
24486;BME280;13449;49.374;8.584;2023-03-18T07:03:40;100227.44;;;10.85;100.00
24486;BME280;13449;49.374;8.584;2023-03-18T07:06:07;100229.06;;;11.00;100.00
24486;BME280;13449;49.374;8.584;2023-03-18T07:08:37;100245.56;;;11.24;100.00
24486;BME280;13449;49.374;8.584;2023-03-18T07:11:04;100241.41;;;11.51;100.00
24486;BME280;13449;49.374;8.584;2023-03-18T07:13:32;100237.78;;;11.52;100.00
24486;BME280;13449;49.374;8.584;2023-03-18T07:15:59;100242.75;;;11.83;100.00
24486;BME280;13449;49.374;8.584;2023-03-18T07:18:26;100239.88;;;12.00;100.00
24486;BME280;13449;49.374;8.584;2023-03-18T07:20:52;100246.22;;;12.33;100.00
24486;BME280;13449;49.374;8.584;2023-03-18T07:23:21;100245.84;;;12.36;100.00
24486;BME280;13449;49.374;8.584;2023-03-18T07:25:47;100249.19;;;12.52;100.00
24486;BME280;13449;49.374;8.584;2023-03-18T07:28:14;100252.91;;;12.64;100.00
24486;BME280;13449;49.374;8.584;2023-03-18T07:30:41;100257.28;;;12.78;100.00
24486;BME280;13449;49.374;8.584;2023-03-18T07:33:08;100252.25;;;12.90;100.00
24486;BME280;13449;49.374;8.584;2023-03-18T07:35:35;100255.56;;;13.05;100.00
24486;BME280;13449;49.374;8.584;2023-03-18T07:38:03;100247.75;;;13.32;100.00
24486;BME280;13449;49.374;8.584;2023-03-18T07:40:29;100253.28;;;13.37;100.00
24486;BME280;13449;49.374;8.584;2023-03-18T07:42:58;100257.44;;;13.66;100.00
24486;BME280;13449;49.374;8.584;2023-03-18T07:45:26;100259.47;;;13.91;100.00
24486;BME280;13449;49.374;8.584;2023-03-18T07:47:55;100252.78;;;13.88;100.00
24486;BME280;13449;49.374;8.584;2023-03-18T07:50:23;100255.44;;;14.01;100.00
24486;BME280;13449;49.374;8.584;2023-03-18T07:52:50;100259.69;;;14.29;98.54
24486;BME280;13449;49.374;8.584;2023-03-18T07:55:19;100262.75;;;14.19;98.85
24486;BME280;13449;49.374;8.584;2023-03-18T07:57:46;100259.50;;;14.37;98.21
24486;BME280;13449;49.374;8.584;2023-03-18T08:00:14;100260.47;;;14.83;100.00
24486;BME280;13449;49.374;8.584;2023-03-18T08:02:40;100262.69;;;14.86;93.49
24486;BME280;13449;49.374;8.584;2023-03-18T08:05:08;100255.91;;;15.03;91.37
24486;BME280;13449;49.374;8.584;2023-03-18T08:07:34;100263.00;;;15.16;94.96
24486;BME280;13449;49.374;8.584;2023-03-18T08:10:01;100252.13;;;15.31;89.14
24486;BME280;13449;49.374;8.584;2023-03-18T08:12:29;100256.78;;;15.35;90.39
24486;BME280;13449;49.374;8.584;2023-03-18T08:15:15;100257.59;;;15.36;82.19
24486;BME280;13449;49.374;8.584;2023-03-18T08:17:43;100258.56;;;15.48;84.28
24486;BME280;13449;49.374;8.584;2023-03-18T08:20:09;100256.13;;;15.40;68.89
24486;BME280;13449;49.374;8.584;2023-03-18T08:22:37;100254.72;;;15.44;78.56
24486;BME280;13449;49.374;8.584;2023-03-18T08:25:04;100258.47;;;15.61;77.63
24486;BME280;13449;49.374;8.584;2023-03-18T08:27:30;100259.88;;;15.71;74.54
24486;BME280;13449;49.374;8.584;2023-03-18T08:29:57;100258.25;;;15.63;74.46
24486;BME280;13449;49.374;8.584;2023-03-18T08:32:23;100254.19;;;15.67;64.36
24486;BME280;13449;49.374;8.584;2023-03-18T08:34:51;100252.91;;;15.76;74.77
24486;BME280;13449;49.374;8.584;2023-03-18T08:37:18;100258.13;;;15.89;71.46
24486;BME280;13449;49.374;8.584;2023-03-18T08:39:44;100254.16;;;15.74;65.81
24486;BME280;13449;49.374;8.584;2023-03-18T08:42:11;100263.22;;;15.91;65.16
24486;BME280;13449;49.374;8.584;2023-03-18T08:44:38;100260.78;;;15.89;68.83
24486;BME280;13449;49.374;8.584;2023-03-18T08:47:05;100260.66;;;15.78;68.47
24486;BME280;13449;49.374;8.584;2023-03-18T08:49:32;100263.91;;;15.80;77.79
24486;BME280;13449;49.374;8.584;2023-03-18T08:51:59;100267.22;;;16.00;69.38
24486;BME280;13449;49.374;8.584;2023-03-18T08:54:26;100271.94;;;15.98;61.10
24486;BME280;13449;49.374;8.584;2023-03-18T08:56:52;100266.91;;;15.90;64.55
24486;BME280;13449;49.374;8.584;2023-03-18T08:59:20;100266.00;;;16.03;67.40
24486;BME280;13449;49.374;8.584;2023-03-18T09:01:49;100251.63;;;16.10;60.83
24486;BME280;13449;49.374;8.584;2023-03-18T09:04:15;100256.56;;;16.32;66.51
24486;BME280;13449;49.374;8.584;2023-03-18T09:06:42;100262.19;;;16.42;66.89
24486;BME280;13449;49.374;8.584;2023-03-18T09:09:08;100257.34;;;16.57;58.69
24486;BME280;13449;49.374;8.584;2023-03-18T09:11:37;100255.13;;;16.54;60.70
24486;BME280;13449;49.374;8.584;2023-03-18T09:14:05;100259.25;;;16.69;58.75
24486;BME280;13449;49.374;8.584;2023-03-18T09:16:32;100257.16;;;16.77;62.10
24486;BME280;13449;49.374;8.584;2023-03-18T09:18:58;100247.50;;;16.58;63.38
24486;BME280;13449;49.374;8.584;2023-03-18T09:21:25;100248.19;;;16.72;59.47
24486;BME280;13449;49.374;8.584;2023-03-18T09:23:52;100242.84;;;16.53;52.77
24486;BME280;13449;49.374;8.584;2023-03-18T09:26:19;100240.44;;;16.89;59.20
24486;BME280;13449;49.374;8.584;2023-03-18T09:28:45;100234.06;;;16.90;60.43
24486;BME280;13449;49.374;8.584;2023-03-18T09:31:12;100242.72;;;17.03;58.61
24486;BME280;13449;49.374;8.584;2023-03-18T09:33:41;100229.75;;;17.25;59.55
24486;BME280;13449;49.374;8.584;2023-03-18T09:36:08;100238.91;;;17.29;57.23
24486;BME280;13449;49.374;8.584;2023-03-18T09:38:37;100245.63;;;17.32;56.35
24486;BME280;13449;49.374;8.584;2023-03-18T09:41:22;100230.94;;;17.29;55.04
24486;BME280;13449;49.374;8.584;2023-03-18T09:46:44;100236.09;;;17.55;54.93
24486;BME280;13449;49.374;8.584;2023-03-18T09:49:47;100222.31;;;17.58;48.64
24486;BME280;13449;49.374;8.584;2023-03-18T09:52:24;100208.94;;;17.76;45.82
24486;BME280;13449;49.374;8.584;2023-03-18T09:54:58;100217.44;;;17.96;45.47
24486;BME280;13449;49.374;8.584;2023-03-18T09:57:33;100207.38;;;18.34;48.67
24486;BME280;13449;49.374;8.584;2023-03-18T10:00:23;100218.94;;;17.81;46.09
24486;BME280;13449;49.374;8.584;2023-03-18T10:03:09;100209.84;;;17.70;46.92
24486;BME280;13449;49.374;8.584;2023-03-18T10:05:45;100213.38;;;17.82;48.25
24486;BME280;13449;49.374;8.584;2023-03-18T10:11:08;100207.03;;;18.07;52.82
24486;BME280;13449;49.374;8.584;2023-03-18T10:13:57;100223.38;;;18.34;49.35
24486;BME280;13449;49.374;8.584;2023-03-18T10:16:29;100216.31;;;18.39;46.42
24486;BME280;13449;49.374;8.584;2023-03-18T10:19:00;100213.16;;;18.42;46.03
24486;BME280;13449;49.374;8.584;2023-03-18T10:21:41;100215.47;;;18.62;44.79
24486;BME280;13449;49.374;8.584;2023-03-18T10:24:21;100211.19;;;18.73;45.44
24486;BME280;13449;49.374;8.584;2023-03-18T10:27:03;100212.66;;;18.81;45.85
24486;BME280;13449;49.374;8.584;2023-03-18T10:32:34;100201.09;;;18.63;44.46
24486;BME280;13449;49.374;8.584;2023-03-18T10:35:41;100199.00;;;18.65;47.99
24486;BME280;13449;49.374;8.584;2023-03-18T10:40:47;100194.09;;;18.86;44.73
24486;BME280;13449;49.374;8.584;2023-03-18T10:43:26;100212.13;;;18.79;44.41
24486;BME280;13449;49.374;8.584;2023-03-18T10:46:04;100198.59;;;18.33;41.33
24486;BME280;13449;49.374;8.584;2023-03-18T10:48:45;100208.66;;;18.43;43.46
24486;BME280;13449;49.374;8.584;2023-03-18T10:56:24;100197.59;;;18.75;46.05
24486;BME280;13449;49.374;8.584;2023-03-18T10:58:51;100193.66;;;18.77;44.93
24486;BME280;13449;49.374;8.584;2023-03-18T11:01:23;100205.16;;;19.06;45.40
24486;BME280;13449;49.374;8.584;2023-03-18T11:04:14;100199.47;;;19.14;45.54
24486;BME280;13449;49.374;8.584;2023-03-18T11:06:46;100188.78;;;19.14;42.68
24486;BME280;13449;49.374;8.584;2023-03-18T11:09:19;100185.88;;;19.16;44.05
24486;BME280;13449;49.374;8.584;2023-03-18T11:11:54;100189.41;;;19.05;43.31
24486;BME280;13449;49.374;8.584;2023-03-18T11:14:27;100191.00;;;19.34;44.45
24486;BME280;13449;49.374;8.584;2023-03-18T11:17:05;100187.72;;;19.44;41.07
24486;BME280;13449;49.374;8.584;2023-03-18T11:19:47;100188.00;;;19.02;40.45
24486;BME280;13449;49.374;8.584;2023-03-18T11:22:18;100191.81;;;18.66;41.23
24486;BME280;13449;49.374;8.584;2023-03-18T11:27:32;100186.97;;;19.03;44.69
24486;BME280;13449;49.374;8.584;2023-03-18T11:32:49;100183.91;;;19.57;44.38
24486;BME280;13449;49.374;8.584;2023-03-18T11:35:22;100182.50;;;19.83;41.32
24486;BME280;13449;49.374;8.584;2023-03-18T11:37:51;100178.63;;;19.28;40.81
24486;BME280;13449;49.374;8.584;2023-03-18T11:40:26;100173.53;;;19.44;41.00
24486;BME280;13449;49.374;8.584;2023-03-18T11:42:56;100176.13;;;19.10;42.64
24486;BME280;13449;49.374;8.584;2023-03-18T11:45:35;100179.09;;;19.25;42.81
24486;BME280;13449;49.374;8.584;2023-03-18T11:48:14;100173.84;;;19.30;43.71
24486;BME280;13449;49.374;8.584;2023-03-18T11:50:52;100172.66;;;19.55;42.99
24486;BME280;13449;49.374;8.584;2023-03-18T11:53:53;100166.09;;;19.46;41.39
24486;BME280;13449;49.374;8.584;2023-03-18T11:56:45;100159.66;;;19.30;41.50
24486;BME280;13449;49.374;8.584;2023-03-18T12:01:48;100168.22;;;19.15;41.15
24486;BME280;13449;49.374;8.584;2023-03-18T12:10:18;100151.47;;;19.65;42.49
24486;BME280;13449;49.374;8.584;2023-03-18T12:13:04;100167.38;;;19.43;39.97
24486;BME280;13449;49.374;8.584;2023-03-18T12:21:44;100150.75;;;19.70;44.91
24486;BME280;13449;49.374;8.584;2023-03-18T12:33:13;100143.44;;;19.48;42.50
24486;BME280;13449;49.374;8.584;2023-03-18T12:35:53;100144.56;;;19.52;44.16
24486;BME280;13449;49.374;8.584;2023-03-18T12:44:29;100145.47;;;19.75;43.94
24486;BME280;13449;49.374;8.584;2023-03-18T12:49:37;100144.41;;;19.76;44.06
24486;BME280;13449;49.374;8.584;2023-03-18T12:52:38;100139.50;;;19.68;44.41
24486;BME280;13449;49.374;8.584;2023-03-18T12:57:48;100136.66;;;19.74;47.80
24486;BME280;13449;49.374;8.584;2023-03-18T13:00:26;100134.22;;;19.90;43.74
24486;BME280;13449;49.374;8.584;2023-03-18T13:03:01;100127.50;;;19.87;44.47
24486;BME280;13449;49.374;8.584;2023-03-18T13:05:41;100122.47;;;19.91;44.10
24486;BME280;13449;49.374;8.584;2023-03-18T13:13:56;100121.22;;;20.15;41.93
24486;BME280;13449;49.374;8.584;2023-03-18T13:16:26;100122.28;;;19.97;42.51
24486;BME280;13449;49.374;8.584;2023-03-18T13:18:55;100130.22;;;20.09;46.83
24486;BME280;13449;49.374;8.584;2023-03-18T13:21:26;100115.97;;;20.03;45.46
24486;BME280;13449;49.374;8.584;2023-03-18T13:32:53;100115.38;;;19.79;43.64
24486;BME280;13449;49.374;8.584;2023-03-18T13:35:08;100119.88;;;19.96;44.78
24486;BME280;13449;49.374;8.584;2023-03-18T13:38:10;100116.28;;;20.07;45.67
24486;BME280;13449;49.374;8.584;2023-03-18T13:40:54;100113.81;;;19.83;42.61
24486;BME280;13449;49.374;8.584;2023-03-18T13:43:23;100114.72;;;19.89;44.25
24486;BME280;13449;49.374;8.584;2023-03-18T13:45:52;100115.09;;;19.81;43.39
24486;BME280;13449;49.374;8.584;2023-03-18T13:48:25;100109.66;;;19.59;44.06
24486;BME280;13449;49.374;8.584;2023-03-18T13:50:53;100114.94;;;19.54;43.96
24486;BME280;13449;49.374;8.584;2023-03-18T14:09:33;100104.72;;;19.17;42.72
24486;BME280;13449;49.374;8.584;2023-03-18T14:14:56;100102.13;;;19.05;44.98
24486;BME280;13449;49.374;8.584;2023-03-18T14:22:38;100098.16;;;19.08;45.70
24486;BME280;13449;49.374;8.584;2023-03-18T14:25:09;100106.19;;;18.79;43.28
24486;BME280;13449;49.374;8.584;2023-03-18T14:27:49;100093.16;;;19.11;43.51
24486;BME280;13449;49.374;8.584;2023-03-18T14:38:03;100089.47;;;19.01;44.78
24486;BME280;13449;49.374;8.584;2023-03-18T14:40:38;100092.16;;;19.01;45.64
24486;BME280;13449;49.374;8.584;2023-03-18T14:43:21;100089.53;;;19.18;49.64
24486;BME280;13449;49.374;8.584;2023-03-18T14:45:51;100099.28;;;19.12;47.16
24486;BME280;13449;49.374;8.584;2023-03-18T14:48:28;100090.88;;;19.20;47.33
24486;BME280;13449;49.374;8.584;2023-03-18T14:50:58;100089.09;;;19.26;45.37